Sabahat Telli — TCSQ6 — position and weather

sailwx.info

Track history (hours):
 
Tides and Currents Weather Stations Pressure Air Temp Water Temp Dewpoint Dewpoint Depression Visibility Wind Speed Wind Dir Waves Ship Positions

Sabahat Telli

Last reported at 2016-Apr-28 17:09 UTC. Time now 2016-May-01 04:18 UTC.
Position N 44°21' E 034°26'.

Length 99 m; draft 4.4 m.

Type: Tanker. MMSI: 271000961.

Date/timePositionNaut miles runAvg speedWind from/ knotsBaromVisibWave heightAir tempDewpointWater temp
2016-Apr-28 17:09N 44°21' E 034°26'712.7
2016-Apr-28 16:33N 44°23' E 034°36'1312.7
2016-Apr-28 15:33N 44°27' E 034°53'1312.8
2016-Apr-28 14:33N 44°31' E 035°10'1313.0
2016-Apr-28 13:33N 44°35' E 035°27'1313.0
2016-Apr-28 12:33N 44°39' E 035°45'1312.9
2016-Apr-28 11:33N 44°43' E 036°02'1212.3
2016-Apr-28 10:33N 44°48' E 036°18'  
2016-Apr-24 16:33N 44°36' E 036°08'1212.5
2016-Apr-24 15:33N 44°29' E 035°54'1212.4
2016-Apr-24 14:33N 44°23' E 035°39'1312.8
2016-Apr-24 13:33N 44°16' E 035°24'1212.3
2016-Apr-24 12:33N 44°09' E 035°09'1212.3
2016-Apr-24 11:33N 44°03' E 034°54'1212.0
2016-Apr-24 10:33N 43°57' E 034°40'1212.3
2016-Apr-24 09:33N 43°51' E 034°25'29712.4
2016-Apr-23 09:31N 40°57' E 028°59'4 1.9
2016-Apr-23 07:22N 40°57' E 028°53'0 0.0
2016-Apr-22 21:24N 40°57' E 028°53'0 0.0
2016-Apr-22 18:28N 40°57' E 028°53'0 0.0
2016-Apr-22 05:17N 40°57' E 028°53'6 0.3
2016-Apr-21 11:32N 40°52' E 028°57'1212.1
2016-Apr-21 10:33N 40°46' E 029°11'1211.9
2016-Apr-21 09:33N 40°45' E 029°27'0 0.0
2016-Apr-19 20:23N 40°45' E 029°27'8 9.2
2016-Apr-19 19:33N 40°45' E 029°17'1212.0
2016-Apr-19 18:33N 40°50' E 029°03'9 9.5
2016-Apr-19 17:33N 40°59' E 028°59'  
Track history (hours):
 
Tides and Currents Weather Stations Pressure Air Temp Water Temp Dewpoint Dewpoint Depression Visibility Wind Speed Wind Dir Waves Ship Positions

Sabahat Telli

Last reported at 2016-Apr-28 17:09 UTC. Time now 2016-May-01 04:18 UTC.
Position N 44°21' E 034°26'.

Length 99 m; draft 4.4 m.

Type: Tanker. MMSI: 271000961.

Date/timePositionNaut miles runAvg speedWind from/ knotsBaromVisibWave heightAir tempDewpointWater temp
2016-Apr-28 17:09N 44°21' E 034°26'712.7
2016-Apr-28 16:33N 44°23' E 034°36'1312.7
2016-Apr-28 15:33N 44°27' E 034°53'1312.8
2016-Apr-28 14:33N 44°31' E 035°10'1313.0
2016-Apr-28 13:33N 44°35' E 035°27'1313.0
2016-Apr-28 12:33N 44°39' E 035°45'1312.9
2016-Apr-28 11:33N 44°43' E 036°02'1212.3
2016-Apr-28 10:33N 44°48' E 036°18'  
2016-Apr-24 16:33N 44°36' E 036°08'1212.5
2016-Apr-24 15:33N 44°29' E 035°54'1212.4
2016-Apr-24 14:33N 44°23' E 035°39'1312.8
2016-Apr-24 13:33N 44°16' E 035°24'1212.3
2016-Apr-24 12:33N 44°09' E 035°09'1212.3
2016-Apr-24 11:33N 44°03' E 034°54'1212.0
2016-Apr-24 10:33N 43°57' E 034°40'1212.3
2016-Apr-24 09:33N 43°51' E 034°25'29712.4
2016-Apr-23 09:31N 40°57' E 028°59'4 1.9
2016-Apr-23 07:22N 40°57' E 028°53'0 0.0
2016-Apr-22 21:24N 40°57' E 028°53'0 0.0
2016-Apr-22 18:28N 40°57' E 028°53'0 0.0
2016-Apr-22 05:17N 40°57' E 028°53'6 0.3
2016-Apr-21 11:32N 40°52' E 028°57'1212.1
2016-Apr-21 10:33N 40°46' E 029°11'1211.9
2016-Apr-21 09:33N 40°45' E 029°27'0 0.0
2016-Apr-19 20:23N 40°45' E 029°27'8 9.2
2016-Apr-19 19:33N 40°45' E 029°17'1212.0
2016-Apr-19 18:33N 40°50' E 029°03'9 9.5
2016-Apr-19 17:33N 40°59' E 028°59'  

Dump ship's entire track history